Vittoria — 3FJY5 — position and weather

sailwx.info

Track history (hours):
 
Tides and Currents Weather Stations Pressure Air Temp Water Temp Dewpoint Dewpoint Depression Visibility Wind Speed Wind Dir Waves Ship Positions

Vittoria

Last reported at 2018-May-09 00:12 UTC. Time now 2018-Jun-19 00:55 UTC.
Position N 01°21' E 104°44'.
Warning: this ship's position is 41 days out of date.

Length 211 m; draft 7.2 m.

Type: Cargo ship. MMSI: 354314000.

Date/timePositionNaut miles runAvg speedWind from/ knotsBaromVisibWave heightAir tempDewpointWater temp
2018-May-09 00:12N 01°21' E 104°44'411.1
2018-May-08 23:48N 01°22' E 104°40'410.8
2018-May-08 23:24N 01°23' E 104°36'511.1
2018-May-08 22:59N 01°24' E 104°31'711.7
2018-May-08 22:23N 01°21' E 104°25'512.8
2018-May-08 21:59N 01°18' E 104°21'611.8
2018-May-08 21:30N 01°16' E 104°15'711.9
2018-May-08 20:57N 01°16' E 104°09'511.8
2018-May-08 20:30N 01°15' E 104°04'4 7.9
2018-May-08 19:59N 01°17' E 104°00'0 0.6
2018-May-08 19:24N 01°18' E 103°60'0 0.0
2018-May-08 18:48N 01°18' E 103°60'0 0.0
2018-May-08 18:30N 01°18' E 103°60'0 0.0
2018-May-08 17:54N 01°18' E 103°60'0 0.0
2018-May-08 17:26N 01°18' E 103°60'0 0.0
2018-May-08 16:56N 01°18' E 103°60'0 0.1
2018-May-08 16:24N 01°17' E 103°60'0 0.0
2018-May-08 15:54N 01°17' E 103°60'0 0.0
2018-May-08 15:24N 01°17' E 103°60'0 0.0
2018-May-08 14:52N 01°18' E 103°60'0 0.0
2018-May-08 14:29N 01°18' E 103°60'0 0.1
2018-May-08 13:50N 01°18' E 103°60'0 0.0
2018-May-08 13:30N 01°18' E 103°60'0 0.0
2018-May-08 12:57N 01°18' E 103°60'0 0.0
2018-May-08 12:29N 01°18' E 103°60'0 0.0
2018-May-08 11:54N 01°18' E 103°60'0 0.0
2018-May-08 11:27N 01°18' E 103°60'0 0.1
2018-May-08 10:54N 01°18' E 103°60'0 0.1
2018-May-08 10:30N 01°18' E 103°60'0 0.0
2018-May-08 09:58N 01°18' E 103°60'0 0.0
2018-May-08 09:30N 01°18' E 103°60'0 0.0
2018-May-08 08:48N 01°18' E 103°60'0 0.0
2018-May-08 08:30N 01°18' E 103°60'0 0.1
2018-May-08 07:57N 01°18' E 103°60'0 0.1
2018-May-08 07:29N 01°18' E 103°60'0 0.3
2018-May-08 06:59N 01°17' E 103°60'2 4.2
2018-May-08 06:30N 01°16' E 103°58'1 2.9
2018-May-08 06:00N 01°15' E 103°57'1 2.2
2018-May-08 05:30N 01°14' E 103°57'2 3.3
2018-May-08 05:00N 01°13' E 103°55'2 3.9
2018-May-08 04:31N 01°13' E 103°54'2 4.5
2018-May-08 04:00N 01°11' E 103°52'2 4.9
2018-May-08 03:30N 01°10' E 103°49'2 4.7
2018-May-08 03:00N 01°09' E 103°47'3 6.5
2018-May-08 02:31N 01°07' E 103°45'4 7.5
2018-May-08 02:00N 01°05' E 103°42'3 6.2
2018-May-08 01:30N 01°03' E 103°39'3 5.4
2018-May-08 00:59N 01°04' E 103°37'3 6.3
2018-May-08 00:30N 01°06' E 103°34'3 5.9
2018-May-07 23:57N 01°08' E 103°32'3 7.5
2018-May-07 23:30N 01°11' E 103°32'5 9.7
2018-May-07 22:59N 01°16' E 103°33'4 7.9
2018-May-07 22:30N 01°20' E 103°33'0 0.5
2018-May-07 21:58N 01°20' E 103°33'0 0.0
2018-May-07 21:16N 01°20' E 103°33'0 0.0
2018-May-07 20:58N 01°20' E 103°33'0 0.0
2018-May-07 20:25N 01°20' E 103°33'0 0.0
2018-May-07 19:52N 01°20' E 103°33'0 0.0
2018-May-07 19:28N 01°20' E 103°33'0 0.0
2018-May-07 18:57N 01°20' E 103°33'0 0.0
2018-May-07 18:21N 01°20' E 103°33'0 0.0
2018-May-07 17:57N 01°20' E 103°33'0 0.0
2018-May-07 17:24N 01°20' E 103°33'0 0.0
2018-May-07 16:57N 01°20' E 103°33'0 0.0
2018-May-07 16:28N 01°20' E 103°33'0 0.0
2018-May-07 15:58N 01°20' E 103°33'0 0.0
2018-May-07 15:25N 01°20' E 103°33'0 0.0
2018-May-07 14:58N 01°20' E 103°33'0 0.0
2018-May-07 14:25N 01°20' E 103°33'0 0.0
2018-May-07 13:54N 01°20' E 103°33'0 0.0
2018-May-07 13:25N 01°20' E 103°33'0 0.0
2018-May-07 12:58N 01°20' E 103°33'0 0.0
2018-May-07 12:31N 01°20' E 103°33'0 0.0
2018-May-07 11:59N 01°20' E 103°33'0 0.0
2018-May-07 11:28N 01°20' E 103°33'0 0.0
2018-May-07 10:58N 01°20' E 103°33'0 0.0
2018-May-07 10:25N 01°20' E 103°33'0 0.0
2018-May-07 09:45N 01°20' E 103°33'0 0.0
2018-May-07 09:28N 01°20' E 103°33'0 0.0
2018-May-07 08:52N 01°20' E 103°33'0 0.0
2018-May-07 08:03N 01°20' E 103°33'0 0.0
2018-May-07 07:59N 01°20' E 103°33'0 0.0
2018-May-07 07:29N 01°20' E 103°33'0 0.0
2018-May-07 06:54N 01°20' E 103°33'0 0.0
2018-May-07 06:10N 01°20' E 103°33'0 0.0
2018-May-07 05:49N 01°20' E 103°33'0 0.0
2018-May-07 05:29N 01°20' E 103°33'0 0.0
2018-May-07 04:58N 01°20' E 103°33'0 0.0
2018-May-07 04:26N 01°20' E 103°33'0 0.0
2018-May-07 03:55N 01°20' E 103°33'0 0.0
2018-May-07 03:25N 01°20' E 103°33'0 0.0
2018-May-07 03:00N 01°20' E 103°33'0 0.0
2018-May-07 02:28N 01°20' E 103°33'0 0.0
2018-May-07 01:52N 01°20' E 103°33'0 0.0
2018-May-07 01:28N 01°20' E 103°33'0 0.0
2018-May-07 00:55N 01°20' E 103°33'0 0.0
2018-May-07 00:24N 01°20' E 103°33'0 0.0
2018-May-06 23:58N 01°20' E 103°33'0 0.0
2018-May-06 23:22N 01°20' E 103°33'0 0.0
2018-May-06 22:58N 01°20' E 103°33'0 0.0
2018-May-06 22:29N 01°20' E 103°33'0 0.0
2018-May-06 21:58N 01°20' E 103°33'0 0.0
2018-May-06 21:23N 01°20' E 103°33'0 0.0
2018-May-06 20:52N 01°20' E 103°33'0 0.0
2018-May-06 20:28N 01°20' E 103°33'0 0.0
2018-May-06 19:58N 01°20' E 103°33'0 0.0
2018-May-06 19:28N 01°20' E 103°33'0 0.0
2018-May-06 18:58N 01°20' E 103°33'0 0.0
2018-May-06 18:28N 01°20' E 103°33'0 0.0
2018-May-06 17:56N 01°20' E 103°33'0 0.0
2018-May-06 17:22N 01°20' E 103°33'0 0.0
2018-May-06 16:58N 01°20' E 103°33'0 0.0
2018-May-06 16:28N 01°20' E 103°33'0 0.0
2018-May-06 15:58N 01°20' E 103°33'0 0.0
2018-May-06 15:25N 01°20' E 103°33'0 0.0
2018-May-06 14:55N 01°20' E 103°33'0 0.0
2018-May-06 14:22N 01°20' E 103°33'0 0.0
2018-May-06 13:58N 01°20' E 103°33'0 0.0
2018-May-06 13:28N 01°20' E 103°33'0 0.0
2018-May-06 12:55N 01°20' E 103°33'0 0.0
2018-May-06 12:19N 01°20' E 103°33'0 0.0
2018-May-06 11:53N 01°20' E 103°33'0 0.0
2018-May-06 11:28N 01°20' E 103°33'0 0.0
2018-May-06 10:58N 01°20' E 103°33'0 0.0
2018-May-06 10:30N 01°20' E 103°33'0 0.0
2018-May-06 09:58N 01°20' E 103°33'0 0.0
2018-May-06 09:22N 01°20' E 103°33'0 0.0
2018-May-06 08:55N 01°20' E 103°33'0 0.0
2018-May-06 08:28N 01°20' E 103°33'0 0.0
2018-May-06 07:58N 01°20' E 103°33'0 0.0
2018-May-06 07:25N 01°20' E 103°33'0 0.0
2018-May-06 06:19N 01°20' E 103°33'0 0.0
2018-May-06 05:59N 01°20' E 103°33'0 0.0
2018-May-06 05:19N 01°20' E 103°33'0 0.0
2018-May-06 04:53N 01°20' E 103°33'0 0.0
2018-May-06 04:29N 01°20' E 103°33'0 0.0
2018-May-06 03:58N 01°20' E 103°33'0 0.0
2018-May-06 03:25N 01°20' E 103°33'0 0.0
2018-May-06 02:58N 01°20' E 103°33'0 0.0
2018-May-06 02:29N 01°20' E 103°33'0 0.0
2018-May-06 01:55N 01°20' E 103°33'0 0.0
2018-May-06 01:29N 01°20' E 103°33'0 0.0
2018-May-06 00:58N 01°20' E 103°33'0 0.0
2018-May-06 00:30N 01°20' E 103°33'0 0.0
2018-May-05 23:58N 01°20' E 103°33'0 0.0
2018-May-05 23:30N 01°20' E 103°33'0 0.0
2018-May-05 22:52N 01°20' E 103°33'0 0.0
2018-May-05 22:20N 01°20' E 103°33'0 0.0
2018-May-05 21:58N 01°20' E 103°33'0 0.0
2018-May-05 21:30N 01°20' E 103°33'0 0.0
2018-May-05 20:59N 01°20' E 103°33'0 0.0
2018-May-05 20:23N 01°20' E 103°33'0 0.0
2018-May-05 19:55N 01°20' E 103°33'0 0.0
2018-May-05 19:29N 01°20' E 103°33'0 0.0
2018-May-05 18:55N 01°20' E 103°33'0 0.0
2018-May-05 18:22N 01°20' E 103°33'0 0.0
2018-May-05 17:58N 01°20' E 103°33'0 0.0
2018-May-05 17:30N 01°20' E 103°33'0 0.0
2018-May-05 16:44N 01°20' E 103°33'0 0.0
2018-May-05 16:29N 01°20' E 103°33'0 0.0
2018-May-05 15:59N 01°20' E 103°33'0 0.0
2018-May-05 15:31N 01°20' E 103°33'0 0.5
2018-May-05 14:59N 01°20' E 103°33'2 5.0
2018-May-05 14:30N 01°17' E 103°33'3 6.6
2018-May-05 13:59N 01°15' E 103°31'2 3.8
2018-May-05 13:30N 01°15' E 103°30'1 0.9
2018-May-05 12:58N 01°15' E 103°30'0 0.3
2018-May-05 12:26N 01°15' E 103°30'0 0.1
2018-May-05 11:53N 01°15' E 103°30'0 0.1
2018-May-05 11:22N 01°15' E 103°30'0 0.0
2018-May-05 10:57N 01°15' E 103°30'0 0.0
2018-May-05 10:23N 01°15' E 103°30'0 0.1
2018-May-05 09:54N 01°15' E 103°30'0 0.1
2018-May-05 09:31N 01°15' E 103°30'0 0.2
2018-May-05 08:59N 01°15' E 103°30'0 0.2
2018-May-05 08:12N 01°15' E 103°30'0 0.3
2018-May-05 08:01N 01°15' E 103°30'0 0.2
2018-May-05 07:27N 01°15' E 103°30'1 2.7
2018-May-05 07:00N 01°14' E 103°31'3 6.6
2018-May-05 06:29N 01°13' E 103°34'5 9.2
2018-May-05 05:59N 01°11' E 103°38'510.7
2018-May-05 05:30N 01°09' E 103°43'4 8.7
2018-May-05 05:00N 01°10' E 103°47'510.5
2018-May-05 04:30N 01°12' E 103°52'611.8
2018-May-05 03:59N 01°15' E 103°57'5 9.8
2018-May-05 03:30N 01°16' E 104°02'612.5
2018-May-05 02:59N 01°17' E 104°08'611.7
2018-May-05 02:30N 01°18' E 104°14'611.3
2018-May-05 02:00N 01°19' E 104°20'610.9
2018-May-05 01:27N 01°23' E 104°24'  
Track history (hours):
 
Tides and Currents Weather Stations Pressure Air Temp Water Temp Dewpoint Dewpoint Depression Visibility Wind Speed Wind Dir Waves Ship Positions

Vittoria

Last reported at 2018-May-09 00:12 UTC. Time now 2018-Jun-19 00:55 UTC.
Position N 01°21' E 104°44'.
Warning: this ship's position is 41 days out of date.

Length 211 m; draft 7.2 m.

Type: Cargo ship. MMSI: 354314000.

Date/timePositionNaut miles runAvg speedWind from/ knotsBaromVisibWave heightAir tempDewpointWater temp
2018-May-09 00:12N 01°21' E 104°44'411.1
2018-May-08 23:48N 01°22' E 104°40'410.8
2018-May-08 23:24N 01°23' E 104°36'511.1
2018-May-08 22:59N 01°24' E 104°31'711.7
2018-May-08 22:23N 01°21' E 104°25'512.8
2018-May-08 21:59N 01°18' E 104°21'611.8
2018-May-08 21:30N 01°16' E 104°15'711.9
2018-May-08 20:57N 01°16' E 104°09'511.8
2018-May-08 20:30N 01°15' E 104°04'4 7.9
2018-May-08 19:59N 01°17' E 104°00'0 0.6
2018-May-08 19:24N 01°18' E 103°60'0 0.0
2018-May-08 18:48N 01°18' E 103°60'0 0.0
2018-May-08 18:30N 01°18' E 103°60'0 0.0
2018-May-08 17:54N 01°18' E 103°60'0 0.0
2018-May-08 17:26N 01°18' E 103°60'0 0.0
2018-May-08 16:56N 01°18' E 103°60'0 0.1
2018-May-08 16:24N 01°17' E 103°60'0 0.0
2018-May-08 15:54N 01°17' E 103°60'0 0.0
2018-May-08 15:24N 01°17' E 103°60'0 0.0
2018-May-08 14:52N 01°18' E 103°60'0 0.0
2018-May-08 14:29N 01°18' E 103°60'0 0.1
2018-May-08 13:50N 01°18' E 103°60'0 0.0
2018-May-08 13:30N 01°18' E 103°60'0 0.0
2018-May-08 12:57N 01°18' E 103°60'0 0.0
2018-May-08 12:29N 01°18' E 103°60'0 0.0
2018-May-08 11:54N 01°18' E 103°60'0 0.0
2018-May-08 11:27N 01°18' E 103°60'0 0.1
2018-May-08 10:54N 01°18' E 103°60'0 0.1
2018-May-08 10:30N 01°18' E 103°60'0 0.0
2018-May-08 09:58N 01°18' E 103°60'0 0.0
2018-May-08 09:30N 01°18' E 103°60'0 0.0
2018-May-08 08:48N 01°18' E 103°60'0 0.0
2018-May-08 08:30N 01°18' E 103°60'0 0.1
2018-May-08 07:57N 01°18' E 103°60'0 0.1
2018-May-08 07:29N 01°18' E 103°60'0 0.3
2018-May-08 06:59N 01°17' E 103°60'2 4.2
2018-May-08 06:30N 01°16' E 103°58'1 2.9
2018-May-08 06:00N 01°15' E 103°57'1 2.2
2018-May-08 05:30N 01°14' E 103°57'2 3.3
2018-May-08 05:00N 01°13' E 103°55'2 3.9
2018-May-08 04:31N 01°13' E 103°54'2 4.5
2018-May-08 04:00N 01°11' E 103°52'2 4.9
2018-May-08 03:30N 01°10' E 103°49'2 4.7
2018-May-08 03:00N 01°09' E 103°47'3 6.5
2018-May-08 02:31N 01°07' E 103°45'4 7.5
2018-May-08 02:00N 01°05' E 103°42'3 6.2
2018-May-08 01:30N 01°03' E 103°39'3 5.4
2018-May-08 00:59N 01°04' E 103°37'3 6.3
2018-May-08 00:30N 01°06' E 103°34'3 5.9
2018-May-07 23:57N 01°08' E 103°32'3 7.5
2018-May-07 23:30N 01°11' E 103°32'5 9.7
2018-May-07 22:59N 01°16' E 103°33'4 7.9
2018-May-07 22:30N 01°20' E 103°33'0 0.5
2018-May-07 21:58N 01°20' E 103°33'0 0.0
2018-May-07 21:16N 01°20' E 103°33'0 0.0
2018-May-07 20:58N 01°20' E 103°33'0 0.0
2018-May-07 20:25N 01°20' E 103°33'0 0.0
2018-May-07 19:52N 01°20' E 103°33'0 0.0
2018-May-07 19:28N 01°20' E 103°33'0 0.0
2018-May-07 18:57N 01°20' E 103°33'0 0.0
2018-May-07 18:21N 01°20' E 103°33'0 0.0
2018-May-07 17:57N 01°20' E 103°33'0 0.0
2018-May-07 17:24N 01°20' E 103°33'0 0.0
2018-May-07 16:57N 01°20' E 103°33'0 0.0
2018-May-07 16:28N 01°20' E 103°33'0 0.0
2018-May-07 15:58N 01°20' E 103°33'0 0.0
2018-May-07 15:25N 01°20' E 103°33'0 0.0
2018-May-07 14:58N 01°20' E 103°33'0 0.0
2018-May-07 14:25N 01°20' E 103°33'0 0.0
2018-May-07 13:54N 01°20' E 103°33'0 0.0
2018-May-07 13:25N 01°20' E 103°33'0 0.0
2018-May-07 12:58N 01°20' E 103°33'0 0.0
2018-May-07 12:31N 01°20' E 103°33'0 0.0
2018-May-07 11:59N 01°20' E 103°33'0 0.0
2018-May-07 11:28N 01°20' E 103°33'0 0.0
2018-May-07 10:58N 01°20' E 103°33'0 0.0
2018-May-07 10:25N 01°20' E 103°33'0 0.0
2018-May-07 09:45N 01°20' E 103°33'0 0.0
2018-May-07 09:28N 01°20' E 103°33'0 0.0
2018-May-07 08:52N 01°20' E 103°33'0 0.0
2018-May-07 08:03N 01°20' E 103°33'0 0.0
2018-May-07 07:59N 01°20' E 103°33'0 0.0
2018-May-07 07:29N 01°20' E 103°33'0 0.0
2018-May-07 06:54N 01°20' E 103°33'0 0.0
2018-May-07 06:10N 01°20' E 103°33'0 0.0
2018-May-07 05:49N 01°20' E 103°33'0 0.0
2018-May-07 05:29N 01°20' E 103°33'0 0.0
2018-May-07 04:58N 01°20' E 103°33'0 0.0
2018-May-07 04:26N 01°20' E 103°33'0 0.0
2018-May-07 03:55N 01°20' E 103°33'0 0.0
2018-May-07 03:25N 01°20' E 103°33'0 0.0
2018-May-07 03:00N 01°20' E 103°33'0 0.0
2018-May-07 02:28N 01°20' E 103°33'0 0.0
2018-May-07 01:52N 01°20' E 103°33'0 0.0
2018-May-07 01:28N 01°20' E 103°33'0 0.0
2018-May-07 00:55N 01°20' E 103°33'0 0.0
2018-May-07 00:24N 01°20' E 103°33'0 0.0
2018-May-06 23:58N 01°20' E 103°33'0 0.0
2018-May-06 23:22N 01°20' E 103°33'0 0.0
2018-May-06 22:58N 01°20' E 103°33'0 0.0
2018-May-06 22:29N 01°20' E 103°33'0 0.0
2018-May-06 21:58N 01°20' E 103°33'0 0.0
2018-May-06 21:23N 01°20' E 103°33'0 0.0
2018-May-06 20:52N 01°20' E 103°33'0 0.0
2018-May-06 20:28N 01°20' E 103°33'0 0.0
2018-May-06 19:58N 01°20' E 103°33'0 0.0
2018-May-06 19:28N 01°20' E 103°33'0 0.0
2018-May-06 18:58N 01°20' E 103°33'0 0.0
2018-May-06 18:28N 01°20' E 103°33'0 0.0
2018-May-06 17:56N 01°20' E 103°33'0 0.0
2018-May-06 17:22N 01°20' E 103°33'0 0.0
2018-May-06 16:58N 01°20' E 103°33'0 0.0
2018-May-06 16:28N 01°20' E 103°33'0 0.0
2018-May-06 15:58N 01°20' E 103°33'0 0.0
2018-May-06 15:25N 01°20' E 103°33'0 0.0
2018-May-06 14:55N 01°20' E 103°33'0 0.0
2018-May-06 14:22N 01°20' E 103°33'0 0.0
2018-May-06 13:58N 01°20' E 103°33'0 0.0
2018-May-06 13:28N 01°20' E 103°33'0 0.0
2018-May-06 12:55N 01°20' E 103°33'0 0.0
2018-May-06 12:19N 01°20' E 103°33'0 0.0
2018-May-06 11:53N 01°20' E 103°33'0 0.0
2018-May-06 11:28N 01°20' E 103°33'0 0.0
2018-May-06 10:58N 01°20' E 103°33'0 0.0
2018-May-06 10:30N 01°20' E 103°33'0 0.0
2018-May-06 09:58N 01°20' E 103°33'0 0.0
2018-May-06 09:22N 01°20' E 103°33'0 0.0
2018-May-06 08:55N 01°20' E 103°33'0 0.0
2018-May-06 08:28N 01°20' E 103°33'0 0.0
2018-May-06 07:58N 01°20' E 103°33'0 0.0
2018-May-06 07:25N 01°20' E 103°33'0 0.0
2018-May-06 06:19N 01°20' E 103°33'0 0.0
2018-May-06 05:59N 01°20' E 103°33'0 0.0
2018-May-06 05:19N 01°20' E 103°33'0 0.0
2018-May-06 04:53N 01°20' E 103°33'0 0.0
2018-May-06 04:29N 01°20' E 103°33'0 0.0
2018-May-06 03:58N 01°20' E 103°33'0 0.0
2018-May-06 03:25N 01°20' E 103°33'0 0.0
2018-May-06 02:58N 01°20' E 103°33'0 0.0
2018-May-06 02:29N 01°20' E 103°33'0 0.0
2018-May-06 01:55N 01°20' E 103°33'0 0.0
2018-May-06 01:29N 01°20' E 103°33'0 0.0
2018-May-06 00:58N 01°20' E 103°33'0 0.0
2018-May-06 00:30N 01°20' E 103°33'0 0.0
2018-May-05 23:58N 01°20' E 103°33'0 0.0
2018-May-05 23:30N 01°20' E 103°33'0 0.0
2018-May-05 22:52N 01°20' E 103°33'0 0.0
2018-May-05 22:20N 01°20' E 103°33'0 0.0
2018-May-05 21:58N 01°20' E 103°33'0 0.0
2018-May-05 21:30N 01°20' E 103°33'0 0.0
2018-May-05 20:59N 01°20' E 103°33'0 0.0
2018-May-05 20:23N 01°20' E 103°33'0 0.0
2018-May-05 19:55N 01°20' E 103°33'0 0.0
2018-May-05 19:29N 01°20' E 103°33'0 0.0
2018-May-05 18:55N 01°20' E 103°33'0 0.0
2018-May-05 18:22N 01°20' E 103°33'0 0.0
2018-May-05 17:58N 01°20' E 103°33'0 0.0
2018-May-05 17:30N 01°20' E 103°33'0 0.0
2018-May-05 16:44N 01°20' E 103°33'0 0.0
2018-May-05 16:29N 01°20' E 103°33'0 0.0
2018-May-05 15:59N 01°20' E 103°33'0 0.0
2018-May-05 15:31N 01°20' E 103°33'0 0.5
2018-May-05 14:59N 01°20' E 103°33'2 5.0
2018-May-05 14:30N 01°17' E 103°33'3 6.6
2018-May-05 13:59N 01°15' E 103°31'2 3.8
2018-May-05 13:30N 01°15' E 103°30'1 0.9
2018-May-05 12:58N 01°15' E 103°30'0 0.3
2018-May-05 12:26N 01°15' E 103°30'0 0.1
2018-May-05 11:53N 01°15' E 103°30'0 0.1
2018-May-05 11:22N 01°15' E 103°30'0 0.0
2018-May-05 10:57N 01°15' E 103°30'0 0.0
2018-May-05 10:23N 01°15' E 103°30'0 0.1
2018-May-05 09:54N 01°15' E 103°30'0 0.1
2018-May-05 09:31N 01°15' E 103°30'0 0.2
2018-May-05 08:59N 01°15' E 103°30'0 0.2
2018-May-05 08:12N 01°15' E 103°30'0 0.3
2018-May-05 08:01N 01°15' E 103°30'0 0.2
2018-May-05 07:27N 01°15' E 103°30'1 2.7
2018-May-05 07:00N 01°14' E 103°31'3 6.6
2018-May-05 06:29N 01°13' E 103°34'5 9.2
2018-May-05 05:59N 01°11' E 103°38'510.7
2018-May-05 05:30N 01°09' E 103°43'4 8.7
2018-May-05 05:00N 01°10' E 103°47'510.5
2018-May-05 04:30N 01°12' E 103°52'611.8
2018-May-05 03:59N 01°15' E 103°57'5 9.8
2018-May-05 03:30N 01°16' E 104°02'612.5
2018-May-05 02:59N 01°17' E 104°08'611.7
2018-May-05 02:30N 01°18' E 104°14'611.3
2018-May-05 02:00N 01°19' E 104°20'610.9
2018-May-05 01:27N 01°23' E 104°24'  

Dump ship's entire track history